sensor_id;sensor_type;location;lat;lon;timestamp;temperature;humidity
64111;DHT22;50401;48.188;11.566;2023-05-07T00:00:46;15.92;76.40
64111;DHT22;50401;48.188;11.566;2023-05-07T00:03:12;15.85;76.54
64111;DHT22;50401;48.188;11.566;2023-05-07T00:05:39;15.88;76.58
64111;DHT22;50401;48.188;11.566;2023-05-07T00:08:04;15.71;76.69
64111;DHT22;50401;48.188;11.566;2023-05-07T00:10:30;15.68;76.82
64111;DHT22;50401;48.188;11.566;2023-05-07T00:12:55;15.70;76.67
64111;DHT22;50401;48.188;11.566;2023-05-07T00:15:21;15.61;76.74
64111;DHT22;50401;48.188;11.566;2023-05-07T00:17:46;15.60;76.79
64111;DHT22;50401;48.188;11.566;2023-05-07T00:20:12;15.64;76.79
64111;DHT22;50401;48.188;11.566;2023-05-07T00:22:37;15.50;76.98
64111;DHT22;50401;48.188;11.566;2023-05-07T00:25:03;15.53;76.95
64111;DHT22;50401;48.188;11.566;2023-05-07T00:27:28;15.49;77.02
64111;DHT22;50401;48.188;11.566;2023-05-07T00:29:54;15.54;77.08
64111;DHT22;50401;48.188;11.566;2023-05-07T00:32:19;15.61;77.07
64111;DHT22;50401;48.188;11.566;2023-05-07T00:34:45;15.56;77.13
64111;DHT22;50401;48.188;11.566;2023-05-07T00:37:10;15.56;77.12
64111;DHT22;50401;48.188;11.566;2023-05-07T00:39:37;15.61;77.02
64111;DHT22;50401;48.188;11.566;2023-05-07T00:42:02;15.56;77.14
64111;DHT22;50401;48.188;11.566;2023-05-07T00:44:28;15.60;77.16
64111;DHT22;50401;48.188;11.566;2023-05-07T00:46:54;15.64;77.10
64111;DHT22;50401;48.188;11.566;2023-05-07T00:49:21;15.60;77.21
64111;DHT22;50401;48.188;11.566;2023-05-07T00:51:46;15.57;77.33
64111;DHT22;50401;48.188;11.566;2023-05-07T00:54:12;15.60;77.39
64111;DHT22;50401;48.188;11.566;2023-05-07T00:56:38;15.60;77.31
64111;DHT22;50401;48.188;11.566;2023-05-07T00:59:04;15.57;77.48
64111;DHT22;50401;48.188;11.566;2023-05-07T01:01:30;15.57;77.54
64111;DHT22;50401;48.188;11.566;2023-05-07T01:03:56;15.58;77.65
64111;DHT22;50401;48.188;11.566;2023-05-07T01:06:23;15.56;77.69
64111;DHT22;50401;48.188;11.566;2023-05-07T01:08:48;15.58;77.47
64111;DHT22;50401;48.188;11.566;2023-05-07T01:11:15;15.61;77.40
64111;DHT22;50401;48.188;11.566;2023-05-07T01:13:41;15.53;77.36
64111;DHT22;50401;48.188;11.566;2023-05-07T01:16:08;15.49;77.45
64111;DHT22;50401;48.188;11.566;2023-05-07T01:18:33;15.51;77.42
64111;DHT22;50401;48.188;11.566;2023-05-07T01:20:59;15.46;77.47
64111;DHT22;50401;48.188;11.566;2023-05-07T01:23:26;15.12;78.22
64111;DHT22;50401;48.188;11.566;2023-05-07T01:25:52;14.91;78.85
64111;DHT22;50401;48.188;11.566;2023-05-07T01:28:18;15.01;78.77
64111;DHT22;50401;48.188;11.566;2023-05-07T01:30:44;14.69;79.81
64111;DHT22;50401;48.188;11.566;2023-05-07T01:33:13;14.88;79.52
64111;DHT22;50401;48.188;11.566;2023-05-07T01:35:39;14.91;79.35
64111;DHT22;50401;48.188;11.566;2023-05-07T01:38:05;14.81;79.50
64111;DHT22;50401;48.188;11.566;2023-05-07T01:40:31;14.63;79.99
64111;DHT22;50401;48.188;11.566;2023-05-07T01:42:57;14.57;80.31
64111;DHT22;50401;48.188;11.566;2023-05-07T01:45:22;14.57;80.23
64111;DHT22;50401;48.188;11.566;2023-05-07T01:47:49;14.56;80.39
64111;DHT22;50401;48.188;11.566;2023-05-07T01:50:14;14.56;80.37
64111;DHT22;50401;48.188;11.566;2023-05-07T01:52:40;14.66;80.22
64111;DHT22;50401;48.188;11.566;2023-05-07T01:55:06;14.80;79.96
64111;DHT22;50401;48.188;11.566;2023-05-07T01:57:31;14.42;80.79
64111;DHT22;50401;48.188;11.566;2023-05-07T01:59:57;14.35;81.00
64111;DHT22;50401;48.188;11.566;2023-05-07T02:02:22;14.57;80.36
64111;DHT22;50401;48.188;11.566;2023-05-07T02:04:47;14.59;80.32
64111;DHT22;50401;48.188;11.566;2023-05-07T02:07:13;14.66;80.14
64111;DHT22;50401;48.188;11.566;2023-05-07T02:09:38;14.76;79.96
64111;DHT22;50401;48.188;11.566;2023-05-07T02:12:04;14.87;79.42
64111;DHT22;50401;48.188;11.566;2023-05-07T02:14:29;14.87;79.17
64111;DHT22;50401;48.188;11.566;2023-05-07T02:16:55;14.71;79.59
64111;DHT22;50401;48.188;11.566;2023-05-07T02:19:20;14.57;79.99
64111;DHT22;50401;48.188;11.566;2023-05-07T02:21:46;14.45;80.46
64111;DHT22;50401;48.188;11.566;2023-05-07T02:24:11;14.26;81.26
64111;DHT22;50401;48.188;11.566;2023-05-07T02:26:37;14.40;80.89
64111;DHT22;50401;48.188;11.566;2023-05-07T02:29:02;14.59;80.25
64111;DHT22;50401;48.188;11.566;2023-05-07T02:31:27;14.66;80.00
64111;DHT22;50401;48.188;11.566;2023-05-07T02:33:53;14.78;79.58
64111;DHT22;50401;48.188;11.566;2023-05-07T02:36:18;14.81;79.40
64111;DHT22;50401;48.188;11.566;2023-05-07T02:38:43;14.84;79.31
64111;DHT22;50401;48.188;11.566;2023-05-07T02:41:09;14.77;79.55
64111;DHT22;50401;48.188;11.566;2023-05-07T02:43:34;14.67;79.83
64111;DHT22;50401;48.188;11.566;2023-05-07T02:46:09;14.52;80.22
64111;DHT22;50401;48.188;11.566;2023-05-07T02:48:34;14.57;80.23
64111;DHT22;50401;48.188;11.566;2023-05-07T02:51:00;14.69;79.91
64111;DHT22;50401;48.188;11.566;2023-05-07T02:53:25;14.73;79.77
64111;DHT22;50401;48.188;11.566;2023-05-07T02:55:52;14.57;80.05
64111;DHT22;50401;48.188;11.566;2023-05-07T02:58:17;14.10;81.49
64111;DHT22;50401;48.188;11.566;2023-05-07T03:00:43;13.88;82.43
64111;DHT22;50401;48.188;11.566;2023-05-07T03:03:08;14.00;82.18
64111;DHT22;50401;48.188;11.566;2023-05-07T03:05:33;14.18;81.69
64111;DHT22;50401;48.188;11.566;2023-05-07T03:07:59;14.28;81.31
64111;DHT22;50401;48.188;11.566;2023-05-07T03:10:24;14.21;81.39
64111;DHT22;50401;48.188;11.566;2023-05-07T03:12:49;14.15;81.52
64111;DHT22;50401;48.188;11.566;2023-05-07T03:15:15;13.77;82.71
64111;DHT22;50401;48.188;11.566;2023-05-07T03:17:41;13.77;82.88
64111;DHT22;50401;48.188;11.566;2023-05-07T03:20:06;14.04;82.32
64111;DHT22;50401;48.188;11.566;2023-05-07T03:22:32;14.28;81.52
64111;DHT22;50401;48.188;11.566;2023-05-07T03:24:57;14.33;81.20
64111;DHT22;50401;48.188;11.566;2023-05-07T03:27:23;14.47;80.88
64111;DHT22;50401;48.188;11.566;2023-05-07T03:29:48;14.49;80.61
64111;DHT22;50401;48.188;11.566;2023-05-07T03:32:14;14.50;80.46
64111;DHT22;50401;48.188;11.566;2023-05-07T03:34:39;14.39;80.65
64111;DHT22;50401;48.188;11.566;2023-05-07T03:37:05;14.43;80.64
64111;DHT22;50401;48.188;11.566;2023-05-07T03:39:30;14.49;80.49
64111;DHT22;50401;48.188;11.566;2023-05-07T03:41:57;14.42;80.42
64111;DHT22;50401;48.188;11.566;2023-05-07T03:44:22;14.40;80.57
64111;DHT22;50401;48.188;11.566;2023-05-07T03:46:48;14.29;80.99
64111;DHT22;50401;48.188;11.566;2023-05-07T03:49:13;14.25;81.21
64111;DHT22;50401;48.188;11.566;2023-05-07T03:51:38;14.35;81.01
64111;DHT22;50401;48.188;11.566;2023-05-07T03:54:04;14.39;80.88
64111;DHT22;50401;48.188;11.566;2023-05-07T03:56:29;14.47;80.74
64111;DHT22;50401;48.188;11.566;2023-05-07T03:58:56;14.56;80.32
64111;DHT22;50401;48.188;11.566;2023-05-07T04:01:21;14.56;80.20
64111;DHT22;50401;48.188;11.566;2023-05-07T04:03:47;14.55;80.21
64111;DHT22;50401;48.188;11.566;2023-05-07T04:06:12;14.57;80.21
64111;DHT22;50401;48.188;11.566;2023-05-07T04:08:37;14.63;80.11
64111;DHT22;50401;48.188;11.566;2023-05-07T04:11:03;14.63;80.15
64111;DHT22;50401;48.188;11.566;2023-05-07T04:13:29;14.61;80.14
64111;DHT22;50401;48.188;11.566;2023-05-07T04:15:55;14.61;80.07
64111;DHT22;50401;48.188;11.566;2023-05-07T04:18:20;14.47;80.25
64111;DHT22;50401;48.188;11.566;2023-05-07T04:20:47;14.53;80.28
64111;DHT22;50401;48.188;11.566;2023-05-07T04:23:12;14.53;80.24
64111;DHT22;50401;48.188;11.566;2023-05-07T04:25:37;14.61;80.10
64111;DHT22;50401;48.188;11.566;2023-05-07T04:28:03;14.67;80.06
64111;DHT22;50401;48.188;11.566;2023-05-07T04:30:28;14.74;80.05
64111;DHT22;50401;48.188;11.566;2023-05-07T04:32:54;14.80;79.92
64111;DHT22;50401;48.188;11.566;2023-05-07T04:35:19;14.88;79.81
64111;DHT22;50401;48.188;11.566;2023-05-07T04:37:45;15.06;79.26
64111;DHT22;50401;48.188;11.566;2023-05-07T04:40:10;15.30;78.59
64111;DHT22;50401;48.188;11.566;2023-05-07T04:42:35;15.57;77.93
64111;DHT22;50401;48.188;11.566;2023-05-07T04:45:01;15.95;77.14
64111;DHT22;50401;48.188;11.566;2023-05-07T04:47:27;16.29;76.07
64111;DHT22;50401;48.188;11.566;2023-05-07T04:49:52;16.74;75.13
64111;DHT22;50401;48.188;11.566;2023-05-07T04:52:18;17.13;74.00
64111;DHT22;50401;48.188;11.566;2023-05-07T04:54:43;17.48;72.77
64111;DHT22;50401;48.188;11.566;2023-05-07T04:57:08;17.41;72.77
64111;DHT22;50401;48.188;11.566;2023-05-07T04:59:34;17.26;72.30
64111;DHT22;50401;48.188;11.566;2023-05-07T05:01:59;17.17;73.03
64111;DHT22;50401;48.188;11.566;2023-05-07T05:04:25;17.81;71.51
64111;DHT22;50401;48.188;11.566;2023-05-07T05:06:50;18.13;70.79
64111;DHT22;50401;48.188;11.566;2023-05-07T05:09:16;18.52;69.94
64111;DHT22;50401;48.188;11.566;2023-05-07T05:11:41;19.03;68.60
64111;DHT22;50401;48.188;11.566;2023-05-07T05:14:06;19.38;67.51
64111;DHT22;50401;48.188;11.566;2023-05-07T05:16:32;19.47;66.25
64111;DHT22;50401;48.188;11.566;2023-05-07T05:18:58;18.71;68.39
64111;DHT22;50401;48.188;11.566;2023-05-07T05:21:23;18.28;69.20
64111;DHT22;50401;48.188;11.566;2023-05-07T05:23:48;19.47;66.63
64111;DHT22;50401;48.188;11.566;2023-05-07T05:26:14;18.79;68.34
64111;DHT22;50401;48.188;11.566;2023-05-07T05:28:39;18.62;68.67
64111;DHT22;50401;48.188;11.566;2023-05-07T05:31:05;17.96;70.22
64111;DHT22;50401;48.188;11.566;2023-05-07T05:33:30;19.10;67.87
64111;DHT22;50401;48.188;11.566;2023-05-07T05:35:55;19.55;66.46
64111;DHT22;50401;48.188;11.566;2023-05-07T05:38:21;20.06;64.82
64111;DHT22;50401;48.188;11.566;2023-05-07T05:40:46;20.00;64.79
64111;DHT22;50401;48.188;11.566;2023-05-07T05:43:12;18.85;67.66
64111;DHT22;50401;48.188;11.566;2023-05-07T05:45:37;19.11;67.50
64111;DHT22;50401;48.188;11.566;2023-05-07T05:48:02;20.49;64.10
64111;DHT22;50401;48.188;11.566;2023-05-07T05:50:28;20.11;64.33
64111;DHT22;50401;48.188;11.566;2023-05-07T05:52:53;21.31;60.83
64111;DHT22;50401;48.188;11.566;2023-05-07T05:55:19;20.95;61.19
64111;DHT22;50401;48.188;11.566;2023-05-07T05:57:44;20.62;63.11
64111;DHT22;50401;48.188;11.566;2023-05-07T06:00:10;21.12;61.31
64111;DHT22;50401;48.188;11.566;2023-05-07T06:02:36;20.79;61.41
64111;DHT22;50401;48.188;11.566;2023-05-07T06:05:01;20.14;63.54
64111;DHT22;50401;48.188;11.566;2023-05-07T06:07:26;20.95;62.06
64111;DHT22;50401;48.188;11.566;2023-05-07T06:09:52;20.38;63.43
64111;DHT22;50401;48.188;11.566;2023-05-07T06:12:17;21.01;61.60
64111;DHT22;50401;48.188;11.566;2023-05-07T06:14:43;18.99;66.74
64111;DHT22;50401;48.188;11.566;2023-05-07T06:17:08;19.97;64.11
64111;DHT22;50401;48.188;11.566;2023-05-07T06:19:34;19.14;66.74
64111;DHT22;50401;48.188;11.566;2023-05-07T06:22:00;20.11;64.13
64111;DHT22;50401;48.188;11.566;2023-05-07T06:24:26;19.66;66.32
64111;DHT22;50401;48.188;11.566;2023-05-07T06:26:52;21.70;60.42
64111;DHT22;50401;48.188;11.566;2023-05-07T06:29:17;22.87;57.81
64111;DHT22;50401;48.188;11.566;2023-05-07T06:31:43;22.30;58.10
64111;DHT22;50401;48.188;11.566;2023-05-07T06:34:08;21.84;59.45
64111;DHT22;50401;48.188;11.566;2023-05-07T06:36:34;21.22;60.91
64111;DHT22;50401;48.188;11.566;2023-05-07T06:39:00;21.04;61.73
64111;DHT22;50401;48.188;11.566;2023-05-07T06:41:25;20.85;62.25
64111;DHT22;50401;48.188;11.566;2023-05-07T06:43:50;20.87;61.88
64111;DHT22;50401;48.188;11.566;2023-05-07T06:46:16;22.84;57.22
64111;DHT22;50401;48.188;11.566;2023-05-07T06:48:41;22.06;57.81
64111;DHT22;50401;48.188;11.566;2023-05-07T06:51:07;21.32;59.74
64111;DHT22;50401;48.188;11.566;2023-05-07T06:53:32;21.61;59.81
64111;DHT22;50401;48.188;11.566;2023-05-07T06:55:57;21.49;59.48
64111;DHT22;50401;48.188;11.566;2023-05-07T06:58:23;22.87;57.40
64111;DHT22;50401;48.188;11.566;2023-05-07T07:00:48;23.98;53.75
64111;DHT22;50401;48.188;11.566;2023-05-07T07:03:14;22.74;57.11
64111;DHT22;50401;48.188;11.566;2023-05-07T07:05:42;23.34;55.17
64111;DHT22;50401;48.188;11.566;2023-05-07T07:08:09;24.37;53.17
64111;DHT22;50401;48.188;11.566;2023-05-07T07:10:34;24.32;51.71
64111;DHT22;50401;48.188;11.566;2023-05-07T07:12:59;23.77;53.10
64111;DHT22;50401;48.188;11.566;2023-05-07T07:15:25;23.63;54.34
64111;DHT22;50401;48.188;11.566;2023-05-07T07:17:50;21.94;58.32
64111;DHT22;50401;48.188;11.566;2023-05-07T07:20:16;22.28;57.74
64111;DHT22;50401;48.188;11.566;2023-05-07T07:22:41;20.70;61.81
64111;DHT22;50401;48.188;11.566;2023-05-07T07:25:07;20.76;61.98
64111;DHT22;50401;48.188;11.566;2023-05-07T07:27:32;21.21;61.19
64111;DHT22;50401;48.188;11.566;2023-05-07T07:29:58;20.62;62.01
64111;DHT22;50401;48.188;11.566;2023-05-07T07:32:23;20.22;63.13
64111;DHT22;50401;48.188;11.566;2023-05-07T07:34:49;20.04;63.74
64111;DHT22;50401;48.188;11.566;2023-05-07T07:37:14;20.83;63.32
64111;DHT22;50401;48.188;11.566;2023-05-07T07:39:40;22.80;58.12
64111;DHT22;50401;48.188;11.566;2023-05-07T07:42:06;23.98;55.48
64111;DHT22;50401;48.188;11.566;2023-05-07T07:44:31;26.41;49.95
64111;DHT22;50401;48.188;11.566;2023-05-07T07:46:57;27.55;46.77
64111;DHT22;50401;48.188;11.566;2023-05-07T07:49:22;28.53;44.30
64111;DHT22;50401;48.188;11.566;2023-05-07T07:51:47;28.97;43.00
64111;DHT22;50401;48.188;11.566;2023-05-07T07:54:13;25.99;49.45
64111;DHT22;50401;48.188;11.566;2023-05-07T07:56:38;24.85;52.05
64111;DHT22;50401;48.188;11.566;2023-05-07T07:59:04;25.44;49.82
64111;DHT22;50401;48.188;11.566;2023-05-07T08:01:30;23.89;53.16
64111;DHT22;50401;48.188;11.566;2023-05-07T08:03:55;23.89;52.68
64111;DHT22;50401;48.188;11.566;2023-05-07T08:06:22;26.96;47.27
64111;DHT22;50401;48.188;11.566;2023-05-07T08:08:48;24.24;51.99
64111;DHT22;50401;48.188;11.566;2023-05-07T08:11:14;25.03;49.59
64111;DHT22;50401;48.188;11.566;2023-05-07T08:13:39;26.75;47.54
64111;DHT22;50401;48.188;11.566;2023-05-07T08:16:05;25.35;50.55
64111;DHT22;50401;48.188;11.566;2023-05-07T08:18:30;25.02;50.96
64111;DHT22;50401;48.188;11.566;2023-05-07T08:20:56;25.34;51.61
64111;DHT22;50401;48.188;11.566;2023-05-07T08:23:21;25.89;50.50
64111;DHT22;50401;48.188;11.566;2023-05-07T08:25:48;26.54;47.98
64111;DHT22;50401;48.188;11.566;2023-05-07T08:28:13;25.55;49.86
64111;DHT22;50401;48.188;11.566;2023-05-07T08:30:38;23.73;53.88
64111;DHT22;50401;48.188;11.566;2023-05-07T08:33:04;23.24;55.75
64111;DHT22;50401;48.188;11.566;2023-05-07T08:35:30;23.19;56.05
64111;DHT22;50401;48.188;11.566;2023-05-07T08:37:55;23.46;56.25
64111;DHT22;50401;48.188;11.566;2023-05-07T08:40:24;24.50;53.51
64111;DHT22;50401;48.188;11.566;2023-05-07T08:42:50;23.36;55.94
64111;DHT22;50401;48.188;11.566;2023-05-07T08:45:16;23.23;56.46
64111;DHT22;50401;48.188;11.566;2023-05-07T08:47:44;23.77;55.12
64111;DHT22;50401;48.188;11.566;2023-05-07T08:50:12;22.25;58.50
64111;DHT22;50401;48.188;11.566;2023-05-07T08:52:39;23.50;56.78
64111;DHT22;50401;48.188;11.566;2023-05-07T08:55:04;24.50;54.10
64111;DHT22;50401;48.188;11.566;2023-05-07T08:57:30;23.84;54.27
64111;DHT22;50401;48.188;11.566;2023-05-07T08:59:55;22.80;56.20
64111;DHT22;50401;48.188;11.566;2023-05-07T09:02:21;22.43;57.03
64111;DHT22;50401;48.188;11.566;2023-05-07T09:04:47;22.26;56.78
64111;DHT22;50401;48.188;11.566;2023-05-07T09:07:12;22.04;54.95
64111;DHT22;50401;48.188;11.566;2023-05-07T09:09:38;22.70;55.60
64111;DHT22;50401;48.188;11.566;2023-05-07T09:12:03;22.43;56.46
64111;DHT22;50401;48.188;11.566;2023-05-07T09:14:29;22.23;56.57
64111;DHT22;50401;48.188;11.566;2023-05-07T09:16:55;22.39;56.71
64111;DHT22;50401;48.188;11.566;2023-05-07T09:19:24;22.56;54.96
64111;DHT22;50401;48.188;11.566;2023-05-07T09:21:49;22.67;55.18
64111;DHT22;50401;48.188;11.566;2023-05-07T09:24:15;23.56;53.41
64111;DHT22;50401;48.188;11.566;2023-05-07T09:26:40;22.97;53.89
64111;DHT22;50401;48.188;11.566;2023-05-07T09:29:07;23.19;52.76
64111;DHT22;50401;48.188;11.566;2023-05-07T09:31:33;22.04;55.71
64111;DHT22;50401;48.188;11.566;2023-05-07T09:34:01;23.05;54.89
64111;DHT22;50401;48.188;11.566;2023-05-07T09:36:26;23.82;53.01
64111;DHT22;50401;48.188;11.566;2023-05-07T09:38:52;24.40;51.24
64111;DHT22;50401;48.188;11.566;2023-05-07T09:41:21;22.78;54.54
64111;DHT22;50401;48.188;11.566;2023-05-07T09:43:47;22.45;53.77
64111;DHT22;50401;48.188;11.566;2023-05-07T09:46:18;22.21;54.85
64111;DHT22;50401;48.188;11.566;2023-05-07T09:48:49;22.53;54.27
64111;DHT22;50401;48.188;11.566;2023-05-07T09:51:30;22.23;55.74
64111;DHT22;50401;48.188;11.566;2023-05-07T09:53:56;23.32;53.25
64111;DHT22;50401;48.188;11.566;2023-05-07T09:56:22;23.57;52.01
64111;DHT22;50401;48.188;11.566;2023-05-07T09:58:47;23.71;50.62
64111;DHT22;50401;48.188;11.566;2023-05-07T10:01:13;22.92;52.03
64111;DHT22;50401;48.188;11.566;2023-05-07T10:03:42;22.35;52.08
64111;DHT22;50401;48.188;11.566;2023-05-07T10:06:09;22.09;52.07
64111;DHT22;50401;48.188;11.566;2023-05-07T10:08:35;21.88;51.56
64111;DHT22;50401;48.188;11.566;2023-05-07T10:11:01;22.00;49.57
64111;DHT22;50401;48.188;11.566;2023-05-07T10:13:26;22.54;49.79
64111;DHT22;50401;48.188;11.566;2023-05-07T10:15:52;22.87;50.13
64111;DHT22;50401;48.188;11.566;2023-05-07T10:18:18;22.95;50.44
64111;DHT22;50401;48.188;11.566;2023-05-07T10:20:43;23.29;51.06
64111;DHT22;50401;48.188;11.566;2023-05-07T10:23:09;23.23;49.03
64111;DHT22;50401;48.188;11.566;2023-05-07T10:25:37;22.83;49.84
64111;DHT22;50401;48.188;11.566;2023-05-07T10:28:05;22.53;52.11
64111;DHT22;50401;48.188;11.566;2023-05-07T10:32:56;21.59;47.82
64111;DHT22;50401;48.188;11.566;2023-05-07T10:35:31;22.02;51.90
64111;DHT22;50401;48.188;11.566;2023-05-07T10:37:57;21.71;52.37
64111;DHT22;50401;48.188;11.566;2023-05-07T10:40:23;21.77;50.49
64111;DHT22;50401;48.188;11.566;2023-05-07T10:42:59;22.28;52.98
64111;DHT22;50401;48.188;11.566;2023-05-07T10:45:25;21.98;49.08
64111;DHT22;50401;48.188;11.566;2023-05-07T10:50:45;22.16;52.65
64111;DHT22;50401;48.188;11.566;2023-05-07T10:53:29;22.12;53.64
64111;DHT22;50401;48.188;11.566;2023-05-07T10:58:39;22.12;52.49
64111;DHT22;50401;48.188;11.566;2023-05-07T11:01:04;21.88;52.04
64111;DHT22;50401;48.188;11.566;2023-05-07T11:03:29;21.69;51.41
64111;DHT22;50401;48.188;11.566;2023-05-07T11:11:17;21.90;53.63
64111;DHT22;50401;48.188;11.566;2023-05-07T11:13:45;22.39;55.20
64111;DHT22;50401;48.188;11.566;2023-05-07T11:21:49;21.98;52.57
64111;DHT22;50401;48.188;11.566;2023-05-07T11:24:14;22.13;51.24
64111;DHT22;50401;48.188;11.566;2023-05-07T11:29:11;22.36;54.04
64111;DHT22;50401;48.188;11.566;2023-05-07T11:31:36;22.57;53.21
64111;DHT22;50401;48.188;11.566;2023-05-07T11:34:02;22.06;53.24
64111;DHT22;50401;48.188;11.566;2023-05-07T11:36:32;21.97;52.80
64111;DHT22;50401;48.188;11.566;2023-05-07T11:38:58;21.64;54.09
64111;DHT22;50401;48.188;11.566;2023-05-07T11:41:32;21.71;54.86
64111;DHT22;50401;48.188;11.566;2023-05-07T11:43:58;21.90;52.92
64111;DHT22;50401;48.188;11.566;2023-05-07T11:46:24;21.63;54.61
64111;DHT22;50401;48.188;11.566;2023-05-07T11:48:50;21.64;54.64
64111;DHT22;50401;48.188;11.566;2023-05-07T11:51:19;21.78;54.51
64111;DHT22;50401;48.188;11.566;2023-05-07T11:53:45;22.11;53.85
64111;DHT22;50401;48.188;11.566;2023-05-07T11:56:11;22.33;53.16
64111;DHT22;50401;48.188;11.566;2023-05-07T11:58:37;22.63;52.34
64111;DHT22;50401;48.188;11.566;2023-05-07T12:01:02;22.65;51.34
64111;DHT22;50401;48.188;11.566;2023-05-07T12:03:28;22.77;51.90
64111;DHT22;50401;48.188;11.566;2023-05-07T12:05:53;22.33;53.18
64111;DHT22;50401;48.188;11.566;2023-05-07T12:08:19;22.52;51.13
64111;DHT22;50401;48.188;11.566;2023-05-07T12:10:47;22.22;49.64
64111;DHT22;50401;48.188;11.566;2023-05-07T12:13:20;22.23;50.34
64111;DHT22;50401;48.188;11.566;2023-05-07T12:15:46;22.32;51.11
64111;DHT22;50401;48.188;11.566;2023-05-07T12:18:11;22.59;50.63
64111;DHT22;50401;48.188;11.566;2023-05-07T12:20:37;22.25;50.15
64111;DHT22;50401;48.188;11.566;2023-05-07T12:23:02;22.33;50.09
64111;DHT22;50401;48.188;11.566;2023-05-07T12:25:32;22.30;51.77
64111;DHT22;50401;48.188;11.566;2023-05-07T12:27:57;22.77;50.30
64111;DHT22;50401;48.188;11.566;2023-05-07T12:33:27;23.11;49.22
64111;DHT22;50401;48.188;11.566;2023-05-07T12:35:54;23.18;48.62
64111;DHT22;50401;48.188;11.566;2023-05-07T12:38:20;23.33;48.79
64111;DHT22;50401;48.188;11.566;2023-05-07T12:40:46;22.54;49.49
64111;DHT22;50401;48.188;11.566;2023-05-07T12:43:19;22.19;50.11
64111;DHT22;50401;48.188;11.566;2023-05-07T12:45:44;22.63;50.09
64111;DHT22;50401;48.188;11.566;2023-05-07T12:48:11;22.77;50.03
64111;DHT22;50401;48.188;11.566;2023-05-07T12:50:37;22.61;49.02
64111;DHT22;50401;48.188;11.566;2023-05-07T12:53:05;22.13;49.83
64111;DHT22;50401;48.188;11.566;2023-05-07T12:55:31;22.05;49.95
64111;DHT22;50401;48.188;11.566;2023-05-07T12:57:57;22.35;49.68
64111;DHT22;50401;48.188;11.566;2023-05-07T13:00:32;22.74;48.89
64111;DHT22;50401;48.188;11.566;2023-05-07T13:03:00;22.87;46.53
64111;DHT22;50401;48.188;11.566;2023-05-07T13:05:26;23.01;47.00
64111;DHT22;50401;48.188;11.566;2023-05-07T13:07:55;22.98;47.13
64111;DHT22;50401;48.188;11.566;2023-05-07T13:10:23;22.35;48.60
64111;DHT22;50401;48.188;11.566;2023-05-07T13:16:18;22.05;49.60
64111;DHT22;50401;48.188;11.566;2023-05-07T13:18:43;21.83;50.28
64111;DHT22;50401;48.188;11.566;2023-05-07T13:21:10;21.95;50.10
64111;DHT22;50401;48.188;11.566;2023-05-07T13:23:38;22.01;48.81
64111;DHT22;50401;48.188;11.566;2023-05-07T13:26:03;21.94;49.33
64111;DHT22;50401;48.188;11.566;2023-05-07T13:28:28;22.30;50.57
64111;DHT22;50401;48.188;11.566;2023-05-07T13:30:54;22.35;50.65
64111;DHT22;50401;48.188;11.566;2023-05-07T13:33:19;22.35;50.51
64111;DHT22;50401;48.188;11.566;2023-05-07T13:35:45;22.25;50.73
64111;DHT22;50401;48.188;11.566;2023-05-07T13:38:10;21.98;51.90
64111;DHT22;50401;48.188;11.566;2023-05-07T13:40:35;22.21;52.19
64111;DHT22;50401;48.188;11.566;2023-05-07T13:43:01;22.09;52.10
64111;DHT22;50401;48.188;11.566;2023-05-07T13:45:29;22.30;51.77
64111;DHT22;50401;48.188;11.566;2023-05-07T13:47:54;22.53;51.12
64111;DHT22;50401;48.188;11.566;2023-05-07T13:50:20;22.12;51.60
64111;DHT22;50401;48.188;11.566;2023-05-07T13:52:45;22.21;51.88
64111;DHT22;50401;48.188;11.566;2023-05-07T13:55:15;22.15;51.88
64111;DHT22;50401;48.188;11.566;2023-05-07T13:57:41;22.02;52.91
64111;DHT22;50401;48.188;11.566;2023-05-07T14:00:06;21.76;53.06
64111;DHT22;50401;48.188;11.566;2023-05-07T14:02:32;21.95;53.03
64111;DHT22;50401;48.188;11.566;2023-05-07T14:04:57;22.16;52.27
64111;DHT22;50401;48.188;11.566;2023-05-07T14:07:22;22.36;52.67
64111;DHT22;50401;48.188;11.566;2023-05-07T14:09:47;22.02;53.07
64111;DHT22;50401;48.188;11.566;2023-05-07T14:12:13;22.16;52.67
64111;DHT22;50401;48.188;11.566;2023-05-07T14:14:38;22.40;52.54
64111;DHT22;50401;48.188;11.566;2023-05-07T14:17:03;22.56;52.37
64111;DHT22;50401;48.188;11.566;2023-05-07T14:19:28;22.49;53.02
64111;DHT22;50401;48.188;11.566;2023-05-07T14:21:54;21.94;52.64
64111;DHT22;50401;48.188;11.566;2023-05-07T14:24:19;22.11;53.55
64111;DHT22;50401;48.188;11.566;2023-05-07T14:26:45;22.39;53.72
64111;DHT22;50401;48.188;11.566;2023-05-07T14:29:10;22.47;52.86
64111;DHT22;50401;48.188;11.566;2023-05-07T14:31:35;22.47;53.04
64111;DHT22;50401;48.188;11.566;2023-05-07T14:34:01;22.52;52.10
64111;DHT22;50401;48.188;11.566;2023-05-07T14:36:27;22.06;53.77
64111;DHT22;50401;48.188;11.566;2023-05-07T14:38:53;22.28;53.60
64111;DHT22;50401;48.188;11.566;2023-05-07T14:41:21;22.45;53.22
64111;DHT22;50401;48.188;11.566;2023-05-07T14:43:47;22.42;52.06
64111;DHT22;50401;48.188;11.566;2023-05-07T14:46:18;22.18;51.70
64111;DHT22;50401;48.188;11.566;2023-05-07T14:48:44;21.67;53.93
64111;DHT22;50401;48.188;11.566;2023-05-07T14:51:10;22.09;53.54
64111;DHT22;50401;48.188;11.566;2023-05-07T14:53:35;22.08;53.76
64111;DHT22;50401;48.188;11.566;2023-05-07T14:56:01;22.08;53.73
64111;DHT22;50401;48.188;11.566;2023-05-07T14:58:26;22.13;53.19
64111;DHT22;50401;48.188;11.566;2023-05-07T15:00:51;22.21;53.11
64111;DHT22;50401;48.188;11.566;2023-05-07T15:03:17;22.22;53.30
64111;DHT22;50401;48.188;11.566;2023-05-07T15:05:42;21.77;54.07
64111;DHT22;50401;48.188;11.566;2023-05-07T15:08:07;21.85;53.19
64111;DHT22;50401;48.188;11.566;2023-05-07T15:10:36;21.95;53.57
64111;DHT22;50401;48.188;11.566;2023-05-07T15:13:06;22.04;53.66
64111;DHT22;50401;48.188;11.566;2023-05-07T15:15:31;22.00;53.14
64111;DHT22;50401;48.188;11.566;2023-05-07T15:17:56;21.93;53.48
64111;DHT22;50401;48.188;11.566;2023-05-07T15:20:22;22.01;53.12
64111;DHT22;50401;48.188;11.566;2023-05-07T15:22:47;21.95;52.95
64111;DHT22;50401;48.188;11.566;2023-05-07T15:25:12;21.83;53.46
64111;DHT22;50401;48.188;11.566;2023-05-07T15:27:38;21.46;53.92
64111;DHT22;50401;48.188;11.566;2023-05-07T15:30:03;21.43;54.03
64111;DHT22;50401;48.188;11.566;2023-05-07T15:32:29;21.24;54.05
64111;DHT22;50401;48.188;11.566;2023-05-07T15:34:54;21.38;54.48